createdAt,value
2022-09-26T00:00:17.494Z,4.70
2022-09-26T00:04:32.620Z,4.65
2022-09-26T00:08:37.183Z,4.97
2022-09-26T00:12:47.733Z,4.90
2022-09-26T00:16:57.720Z,4.53
2022-09-26T00:21:11.644Z,5.07
2022-09-26T00:25:27.655Z,4.60
2022-09-26T00:29:38.703Z,4.75
2022-09-26T00:33:48.648Z,5.63
2022-09-26T00:37:58.660Z,5.57
2022-09-26T00:42:08.654Z,5.60
2022-09-26T00:46:24.424Z,5.65
2022-09-26T00:50:37.678Z,5.97
2022-09-26T00:54:51.670Z,5.90
2022-09-26T00:59:06.646Z,5.78
2022-09-26T01:03:17.985Z,6.18
2022-09-26T01:07:25.055Z,6.15
2022-09-26T01:11:36.649Z,6.30
2022-09-26T01:15:46.659Z,6.13
2022-09-26T01:20:04.667Z,6.40
2022-09-26T01:24:43.967Z,6.65
2022-09-26T01:29:20.650Z,5.68
2022-09-26T01:33:43.668Z,6.32
2022-09-26T01:38:01.654Z,6.40
2022-09-26T01:42:21.919Z,6.45
2022-09-26T01:46:31.011Z,6.28
2022-09-26T01:50:46.667Z,7.63
2022-09-26T01:55:02.849Z,6.85
2022-09-26T01:59:17.662Z,9.65
2022-09-26T02:03:33.659Z,8.32
2022-09-26T02:07:43.222Z,8.85
2022-09-26T02:11:57.950Z,9.30
2022-09-26T02:16:09.989Z,9.68
2022-09-26T02:20:23.658Z,10.32
2022-09-26T02:24:42.639Z,10.27
2022-09-26T02:28:52.733Z,9.85
2022-09-26T02:33:02.660Z,8.88
2022-09-26T02:37:12.652Z,9.10
2022-09-26T02:41:30.654Z,9.30
2022-09-26T02:45:48.729Z,8.60
2022-09-26T02:50:18.658Z,8.40
2022-09-26T02:54:29.352Z,7.85
2022-09-26T02:58:48.678Z,7.60
2022-09-26T03:03:12.655Z,6.97
2022-09-26T03:07:28.664Z,6.85
2022-09-26T03:11:40.665Z,6.13
2022-09-26T03:15:56.772Z,6.30
2022-09-26T03:20:10.664Z,5.90
2022-09-26T03:24:20.683Z,5.68
2022-09-26T03:28:35.322Z,5.65
2022-09-26T03:32:41.998Z,6.47
2022-09-26T03:36:51.678Z,6.47
2022-09-26T03:41:01.895Z,6.38
2022-09-26T03:45:16.670Z,7.15
2022-09-26T03:49:27.713Z,6.57
2022-09-26T03:53:39.655Z,5.93
2022-09-26T03:57:42.692Z,6.32
2022-09-26T04:01:52.785Z,6.63
2022-09-26T04:06:10.664Z,6.13
2022-09-26T04:10:20.676Z,6.43
2022-09-26T04:14:30.667Z,5.90
2022-09-26T04:18:41.667Z,6.35
2022-09-26T04:22:46.067Z,6.07
2022-09-26T04:26:55.672Z,6.18
2022-09-26T04:30:59.078Z,5.97
2022-09-26T04:35:08.669Z,5.93
2022-09-26T04:39:19.660Z,6.32
2022-09-26T04:43:28.673Z,7.00
2022-09-26T04:47:38.654Z,5.90
2022-09-26T04:51:48.684Z,6.80
2022-09-26T04:56:01.682Z,6.75
2022-09-26T05:00:13.674Z,6.07
2022-09-26T05:04:29.662Z,6.25
2022-09-26T05:08:39.682Z,6.78
2022-09-26T05:12:50.685Z,6.10
2022-09-26T05:16:53.751Z,6.50
2022-09-26T05:21:04.706Z,6.25
2022-09-26T05:25:25.933Z,6.55
2022-09-26T05:29:36.703Z,6.65
2022-09-26T05:33:46.716Z,5.82
2022-09-26T05:37:56.670Z,6.35
2022-09-26T05:42:06.675Z,6.72
2022-09-26T05:46:18.770Z,6.25
2022-09-26T05:50:31.674Z,7.10
2022-09-26T05:54:41.702Z,6.07
2022-09-26T05:58:51.683Z,6.70
2022-09-26T06:03:07.683Z,5.70
2022-09-26T06:07:17.726Z,5.32
2022-09-26T06:11:29.738Z,5.30
2022-09-26T06:15:32.843Z,5.05
2022-09-26T06:19:43.700Z,5.10
2022-09-26T06:23:47.281Z,5.10
2022-09-26T06:28:00.029Z,5.13
2022-09-26T06:32:09.722Z,5.35
2022-09-26T06:36:20.705Z,5.30
2022-09-26T06:40:23.723Z,4.93
2022-09-26T06:44:33.673Z,5.97
2022-09-26T06:48:43.762Z,4.30
2022-09-26T06:52:54.693Z,4.40
2022-09-26T06:56:57.811Z,5.40
2022-09-26T07:01:07.737Z,4.72
2022-09-26T07:05:18.022Z,4.50
2022-09-26T07:09:28.681Z,4.88
2022-09-26T07:13:38.678Z,4.45
2022-09-26T07:17:48.671Z,4.57
2022-09-26T07:21:58.710Z,4.38
2022-09-26T07:26:10.695Z,4.57
2022-09-26T07:30:20.686Z,3.80
2022-09-26T07:34:31.748Z,3.67
2022-09-26T07:38:34.826Z,4.30
2022-09-26T07:43:04.004Z,3.22
2022-09-26T07:47:32.680Z,4.22
2022-09-26T07:51:43.689Z,3.55
2022-09-26T07:56:12.671Z,2.78
2022-09-26T08:00:26.674Z,2.83
2022-09-26T08:04:42.696Z,2.95
2022-09-26T08:08:52.689Z,2.47
2022-09-26T08:13:03.686Z,2.83
2022-09-26T08:17:15.681Z,2.50
2022-09-26T08:21:19.131Z,2.13
2022-09-26T08:25:28.871Z,2.10
2022-09-26T08:29:38.702Z,2.10
2022-09-26T08:33:50.679Z,2.10
2022-09-26T08:38:00.863Z,2.53
2022-09-26T08:42:27.682Z,2.50
2022-09-26T08:46:55.741Z,2.15
2022-09-26T08:51:10.733Z,1.77
2022-09-26T08:55:23.679Z,1.73
2022-09-26T08:59:31.141Z,1.83
2022-09-26T09:03:45.776Z,1.65
2022-09-26T09:08:06.675Z,1.90
2022-09-26T09:12:25.469Z,2.10
2022-09-26T09:16:52.687Z,1.85
2022-09-26T09:21:06.681Z,2.20
2022-09-26T09:25:24.715Z,1.95
2022-09-26T09:29:52.699Z,1.83
2022-09-26T09:34:06.782Z,2.33
2022-09-26T09:38:22.693Z,1.65
2022-09-26T09:42:38.689Z,1.70
2022-09-26T09:46:50.796Z,1.65
2022-09-26T09:51:05.727Z,1.58
2022-09-26T09:55:33.697Z,1.80
2022-09-26T10:00:05.686Z,1.58
2022-09-26T10:04:27.844Z,1.30
2022-09-26T10:08:38.711Z,1.70
2022-09-26T10:12:50.700Z,1.90
2022-09-26T10:17:26.694Z,1.63
2022-09-26T10:21:33.966Z,1.77
2022-09-26T10:25:43.688Z,1.48
2022-09-26T10:29:53.964Z,1.40
2022-09-26T10:34:07.709Z,1.70
2022-09-26T10:38:28.712Z,1.50
2022-09-26T10:42:38.698Z,1.70
2022-09-26T10:46:45.413Z,1.80
2022-09-26T10:50:59.787Z,1.55
2022-09-26T10:55:13.736Z,1.80
2022-09-26T10:59:20.160Z,1.88
2022-09-26T11:03:32.766Z,1.70
2022-09-26T11:07:53.722Z,1.50
2022-09-26T11:12:03.695Z,1.60
2022-09-26T11:16:16.765Z,1.70
2022-09-26T11:20:28.632Z,1.58
2022-09-26T11:24:48.803Z,1.90
2022-09-26T11:29:01.722Z,1.65
2022-09-26T11:33:15.723Z,2.45
2022-09-26T11:37:40.735Z,1.40
2022-09-26T11:42:10.717Z,1.70
2022-09-26T11:46:41.759Z,1.70
2022-09-26T11:51:02.698Z,1.70
2022-09-26T11:55:27.767Z,1.50
2022-09-26T12:00:04.731Z,2.25
2022-09-26T12:04:45.821Z,1.95
2022-09-26T12:09:08.724Z,1.90
2022-09-26T12:13:31.756Z,1.60
2022-09-26T12:17:54.742Z,3.20
2022-09-26T12:22:27.715Z,1.60
2022-09-26T12:26:46.723Z,2.20
2022-09-26T12:31:07.911Z,1.60
2022-09-26T12:35:41.705Z,1.55
2022-09-26T12:40:08.724Z,1.83
2022-09-26T12:44:37.736Z,1.45
2022-09-26T12:49:05.707Z,1.83
2022-09-26T12:53:43.712Z,3.95
2022-09-26T12:58:07.738Z,1.77
2022-09-26T13:02:45.775Z,2.58
2022-09-26T13:07:20.500Z,3.38
2022-09-26T13:11:39.735Z,1.80
2022-09-26T13:16:11.800Z,2.08
2022-09-26T13:20:25.745Z,2.00
2022-09-26T13:24:43.038Z,1.80
2022-09-26T13:29:15.689Z,2.25
2022-09-26T13:33:27.733Z,2.35
2022-09-26T13:37:50.079Z,1.88
2022-09-26T13:42:08.741Z,1.80
2022-09-26T13:46:27.173Z,2.00
2022-09-26T13:50:45.742Z,2.10
2022-09-26T13:55:08.755Z,2.40
2022-09-26T13:59:42.765Z,1.80
2022-09-26T14:03:53.744Z,1.90
2022-09-26T14:08:26.751Z,2.03
2022-09-26T14:12:57.742Z,1.77
2022-09-26T14:17:10.733Z,1.30
2022-09-26T14:21:41.784Z,1.75
2022-09-26T14:26:11.728Z,1.30
2022-09-26T14:30:28.140Z,1.45
2022-09-26T14:34:43.939Z,1.48
2022-09-26T14:38:57.747Z,1.55
2022-09-26T14:43:38.189Z,1.80
2022-09-26T14:47:54.769Z,1.55
2022-09-26T14:52:01.831Z,1.73
2022-09-26T14:56:16.830Z,1.30
2022-09-26T15:00:46.782Z,1.67
2022-09-26T15:05:20.804Z,2.42
2022-09-26T15:09:34.867Z,1.67
2022-09-26T15:13:50.915Z,1.58
2022-09-26T15:18:03.744Z,7.22
2022-09-26T15:22:20.741Z,2.63
2022-09-26T15:26:27.828Z,1.60
2022-09-26T15:30:45.895Z,1.50
2022-09-26T15:34:55.774Z,1.60
2022-09-26T15:39:06.745Z,1.60
2022-09-26T15:43:22.928Z,1.55
2022-09-26T15:47:47.753Z,6.30
2022-09-26T15:52:01.753Z,267.33
2022-09-26T15:56:14.751Z,113.70
2022-09-26T16:00:25.763Z,541.38
2022-09-26T16:04:44.739Z,823.08
2022-09-26T16:08:59.252Z,257.55
2022-09-26T16:13:08.750Z,865.85
2022-09-26T16:17:27.767Z,404.33
2022-09-26T16:21:42.780Z,364.27
2022-09-26T16:26:02.784Z,57.45
2022-09-26T16:30:49.837Z,6.82
2022-09-26T16:35:29.370Z,4.32
2022-09-26T16:39:47.798Z,2.72
2022-09-26T16:43:55.590Z,33.75
2022-09-26T16:48:05.824Z,32.42
2022-09-26T16:52:37.783Z,2.55
2022-09-26T16:56:50.882Z,2.97
2022-09-26T17:01:11.326Z,79.78
2022-09-26T17:05:18.881Z,114.20
2022-09-26T17:09:23.675Z,3.28
2022-09-26T17:13:34.122Z,2.72
2022-09-26T17:17:38.402Z,2.80
2022-09-26T17:21:41.767Z,2.67
2022-09-26T17:25:48.302Z,3.15
2022-09-26T17:29:55.287Z,2.92
2022-09-26T17:33:58.960Z,3.30
2022-09-26T17:38:02.849Z,2.15
2022-09-26T17:42:06.143Z,3.47
2022-09-26T17:46:15.491Z,2.03
2022-09-26T17:50:24.514Z,2.50
2022-09-26T17:54:31.665Z,2.25
2022-09-26T17:58:36.745Z,2.80
2022-09-26T18:02:44.633Z,2.78
2022-09-26T18:06:48.120Z,2.70
2022-09-26T18:10:55.198Z,2.70
2022-09-26T18:15:00.099Z,2.63
2022-09-26T18:19:07.558Z,2.83
2022-09-26T18:23:17.359Z,3.45
2022-09-26T18:27:22.293Z,3.38
2022-09-26T18:31:29.829Z,4.25
2022-09-26T18:35:34.583Z,3.30
2022-09-26T18:39:37.843Z,2.92
2022-09-26T18:43:42.877Z,15.07
2022-09-26T18:47:46.295Z,3.30
2022-09-26T18:51:50.894Z,3.22
2022-09-26T18:56:11.680Z,3.15
2022-09-26T19:00:15.128Z,3.20
2022-09-26T19:04:20.405Z,3.50
2022-09-26T19:08:34.193Z,3.70
2022-09-26T19:12:39.749Z,3.55
2022-09-26T19:16:43.692Z,3.33
2022-09-26T19:20:47.247Z,3.42
2022-09-26T19:24:55.246Z,3.40
2022-09-26T19:29:00.538Z,3.22
2022-09-26T19:33:03.788Z,3.05
2022-09-26T19:37:09.915Z,6.93
2022-09-26T19:41:14.753Z,2.67
2022-09-26T19:45:18.723Z,2.25
2022-09-26T19:49:29.959Z,2.20
2022-09-26T19:53:36.238Z,1.52
2022-09-26T19:57:40.904Z,2.13
2022-09-26T20:01:46.115Z,1.85
2022-09-26T20:05:50.907Z,1.60
2022-09-26T20:09:54.869Z,1.50
2022-09-26T20:14:17.177Z,1.38
2022-09-26T20:18:22.756Z,1.38
2022-09-26T20:22:26.124Z,1.70
2022-09-26T20:26:30.759Z,1.88
2022-09-26T20:30:54.532Z,1.50
2022-09-26T20:35:03.561Z,1.40
2022-09-26T20:39:13.081Z,2.08
2022-09-26T20:43:25.338Z,1.88
2022-09-26T20:47:30.626Z,1.65
2022-09-26T20:51:35.228Z,1.95
2022-09-26T20:55:43.212Z,2.00
2022-09-26T20:59:47.368Z,1.63
2022-09-26T21:03:55.242Z,1.65
2022-09-26T21:08:00.378Z,1.77
2022-09-26T21:12:03.723Z,1.70
2022-09-26T21:16:07.663Z,1.70
2022-09-26T21:20:16.493Z,1.95
2022-09-26T21:24:25.140Z,2.50
2022-09-26T21:28:29.532Z,2.22
2022-09-26T21:32:32.723Z,2.33
2022-09-26T21:36:40.476Z,2.40
2022-09-26T21:40:45.269Z,2.20
2022-09-26T21:44:54.363Z,2.30
2022-09-26T21:48:57.751Z,2.47
2022-09-26T21:53:07.946Z,2.58
2022-09-26T21:57:13.281Z,2.30
2022-09-26T22:01:16.532Z,2.45
2022-09-26T22:05:19.882Z,2.05
2022-09-26T22:09:24.417Z,2.33
2022-09-26T22:13:27.599Z,2.20
2022-09-26T22:17:30.735Z,2.35
2022-09-26T22:21:34.163Z,2.65
2022-09-26T22:25:42.834Z,3.35
2022-09-26T22:29:46.231Z,2.67
2022-09-26T22:33:49.518Z,2.65
2022-09-26T22:37:52.721Z,3.00
2022-09-26T22:41:57.228Z,3.05
2022-09-26T22:46:03.356Z,3.08
2022-09-26T22:50:07.245Z,2.53
2022-09-26T22:54:10.439Z,3.08
2022-09-26T22:58:15.075Z,2.70
2022-09-26T23:02:18.267Z,2.65
2022-09-26T23:06:22.682Z,3.00
2022-09-26T23:10:25.837Z,3.10
2022-09-26T23:14:30.440Z,3.00
2022-09-26T23:18:34.844Z,2.97
2022-09-26T23:22:39.857Z,3.20
2022-09-26T23:26:42.976Z,3.53
2022-09-26T23:30:47.814Z,3.20
2022-09-26T23:34:51.019Z,3.47
2022-09-26T23:38:54.545Z,2.95
2022-09-26T23:42:57.795Z,3.63
2022-09-26T23:47:04.340Z,3.08
2022-09-26T23:51:07.467Z,3.63
2022-09-26T23:55:11.744Z,3.50
2022-09-26T23:59:15.037Z,3.30
